Inicio METAR Ruta Wind Satelite

Informe Meteorológico

Fecha: 2024/06/18 19:36:51 Local
2024.06.19 00:36 UTC


Operación:VFR
SKBO 190000Z VRB02KT 9999 SCT017 SCT070 13/13 Q1024 NOSIG =

SKBO 182300Z 28005KT 9999 FEW020 14/13 Q1024 NOSIG
SKBO 182200Z VRB02KT 9999 FEW020 13/13 Q1023 NOSIG
SKBO 182100Z 32006KT 9999 SCT020 14/12 Q1024 NOSIG
SKBO 182000Z 33007KT 9999 -DZ SCT020CB SCT080 13/12 Q1024 NOSIG RMK CB/NW
SKBO 181900Z 24007KT 9999 -DZ FEW015CB SCT020 14/12 Q1024 RETSRA NOSIG RMK CB/NW

2024/06/18 18:42
TAF TAF SKBO 181630Z 1818/1918 28010KT 9999 SCT020
TEMPO 1818/1821 TSRA SCT015CB
BECMG 1900/1902 VRB02KT SCT015 PROB40
TEMPO 1905/1908 RADZ BKN015 TX20/1819Z TN10/1910Z